Time;durP1;ratioP1;P1;durP2;ratioP2;P2;SDS_P1;SDS_P2;PMS_P1;PMS_P2;Temp;Humidity;BMP_temperature;BMP_pressure;BME280_temperature;BME280_humidity;BME280_pressure;Samples;Min_cycle;Max_cycle;Signal;HPM_P1;HPM_P2
2022/12/31 00:02:05;;;;;;;;;;;;;;;;;;5056968;28;20039;-79
2022/12/31 00:04:32;;;;;;;;;;;;;;;;;;5058773;28;20364;-79
2022/12/31 00:06:58;;;;;;;;;;;;;;;;;;5075857;28;19966;-79
2022/12/31 00:09:26;;;;;;;;;;;;;;;;;;5075329;28;19978;-80
2022/12/31 00:11:53;;;;;;;;;;;;;;;;;;5056917;28;19929;-80
2022/12/31 00:14:19;;;;;;;;;;;;;;;;;;5056614;28;20008;-79
2022/12/31 00:16:46;;;;;;;;;;;;;;;;;;5061432;28;19928;-80
2022/12/31 00:19:13;;;;;;;;;;;;;;;;;;5059396;28;19967;-79
2022/12/31 00:21:40;;;;;;;;;;;;;;;;;;5056341;28;20019;-79
2022/12/31 00:24:07;;;;;;;;;;;;;;;;;;5054791;28;20482;-80
2022/12/31 00:26:34;;;;;;;;;;;;;;;;;;5053044;28;19932;-80
2022/12/31 00:29:01;;;;;;;;;;;;;;;;;;5053714;28;19925;-79
2022/12/31 00:31:29;;;;;;;;;;;;;;;;;;5070124;28;20043;-80
2022/12/31 00:33:55;;;;;;;;;;;;;;;;;;5059783;28;19996;-80
2022/12/31 00:36:23;;;;;;;;;;;;;;;;;;5068590;28;19959;-80
2022/12/31 00:38:51;;;;;;;;;;;;;;;;;;5074934;28;19925;-80
2022/12/31 00:41:18;;;;;;;;;;;;;;;;;;5078431;28;19926;-79
2022/12/31 00:43:46;;;;;;;;;;;;;;;;;;5077659;28;19936;-79
2022/12/31 00:46:13;;;;;;;;;;;;;;;;;;5076929;28;19964;-79
2022/12/31 00:48:39;;;;;;;;;;;;;;;;;;5069513;28;19971;-79
2022/12/31 00:51:06;;;;;;;;;;;;;;;;;;5062284;28;19924;-79
2022/12/31 00:53:33;;;;;;;;;;;;;;;;;;5056859;28;19960;-79
2022/12/31 00:56:00;;;;;;;;;;;;;;;;;;5057453;28;19967;-79
2022/12/31 00:58:27;;;;;;;;;;;;;;;;;;5082405;22;19968;-57
2022/12/31 01:00:55;;;;;;;;;;;;;;;;;;5073112;28;20304;-57
2022/12/31 01:03:22;;;;;;;;;;;;;;;;;;5073497;28;19929;-58
2022/12/31 01:05:49;;;;;;;;;;;;;;;;;;5074046;28;19977;-57
2022/12/31 01:08:16;;;;;;;;;;;;;;;;;;5073867;28;19925;-57
2022/12/31 01:13:31;;;;;;;;;;;;;;;;;;5073926;28;19940;-57
2022/12/31 01:16:06;;;;;;;;;;;;;;;;;;5075429;28;20377;-58
2022/12/31 01:18:32;;;;;;;;;;;;;;;;;;5075641;28;20028;-58
2022/12/31 01:21:01;;;;;;;;;;;;;;;;;;5075455;28;19924;-56
2022/12/31 01:23:27;;;;;;;;;;;;;;;;;;5075598;28;19924;-53
2022/12/31 01:25:54;;;;;;;;;;;;;;;;;;5075202;28;19931;-55
2022/12/31 01:28:20;;;;;;;;;;;;;;;;;;5075616;28;19924;-57
2022/12/31 01:30:47;;;;;;;;;;;;;;;;;;5075326;28;20389;-57
2022/12/31 01:33:15;;;;;;;;;;;;;;;;;;5075335;28;19924;-56
2022/12/31 01:35:42;;;;;;;;;;;;;;;;;;5075492;28;19925;-57
2022/12/31 01:38:08;;;;;;;;;;;;;;;;;;5075196;28;19933;-55
2022/12/31 01:40:36;;;;;;;;;;;;;;;;;;5075151;28;19924;-57
2022/12/31 01:43:03;;;;;;;;;;;;;;;;;;5075058;28;19975;-53
2022/12/31 01:45:29;;;;;;;;;;;;;;;;;;5074888;28;19931;-56
2022/12/31 01:47:57;;;;;;;;;;;;;;;;;;5074931;28;19929;-56
2022/12/31 01:50:27;;;;;;;;;;;;;;;;;;5074685;28;19931;-57
2022/12/31 01:52:55;;;;;;;;;;;;;;;;;;5075369;28;19929;-57
2022/12/31 01:55:23;;;;;;;;;;;;;;;;;;5075017;28;19970;-58
2022/12/31 01:57:51;;;;;;;;;;;;;;;;;;5074926;28;19925;-56
2022/12/31 02:00:19;;;;;;;;;;;;;;;;;;5075304;28;19931;-55
2022/12/31 02:02:46;;;;;;;;;;;;;;;;;;5074920;28;20405;-56
2022/12/31 02:05:16;;;;;;;;;;;;;;;;;;5075038;28;20377;-57
2022/12/31 02:07:44;;;;;;;;;;;;;;;;;;5074644;28;20046;-58
2022/12/31 02:10:11;;;;;;;;;;;;;;;;;;5074604;28;19981;-57
2022/12/31 02:12:38;;;;;;;;;;;;;;;;;;5074640;28;19925;-56
2022/12/31 02:15:05;;;;;;;;;;;;;;;;;;5074588;28;19924;-58
2022/12/31 02:17:34;;;;;;;;;;;;;;;;;;5074674;28;19978;-54
2022/12/31 02:20:13;;;;;;;;;;;;;;;;;;5074486;28;19924;-58
2022/12/31 02:22:47;;;;;;;;;;;;;;;;;;5074404;28;19924;-57
2022/12/31 02:25:23;;;;;;;;;;;;;;;;;;5074527;28;19935;-57
2022/12/31 02:27:54;;;;;;;;;;;;;;;;;;5074130;28;19924;-56
2022/12/31 02:30:23;;;;;;;;;;;;;;;;;;5074266;28;20344;-57
2022/12/31 02:33:05;;;;;;;;;;;;;;;;;;5074050;28;19932;-58
2022/12/31 02:35:33;;;;;;;;;;;;;;;;;;5070567;28;20393;-58
2022/12/31 02:38:02;;;;;;;;;;;;;;;;;;5073970;28;19924;-58
2022/12/31 02:40:29;;;;;;;;;;;;;;;;;;5074103;28;19931;-58
2022/12/31 02:42:56;;;;;;;;;;;;;;;;;;5073897;28;19974;-58
2022/12/31 02:45:27;;;;;;;;;;;;;;;;;;5074202;28;19928;-58
2022/12/31 02:48:00;;;;;;;;;;;;;;;;;;5074212;28;19933;-56
2022/12/31 02:50:36;;;;;;;;;;;;;;;;;;5074194;28;19924;-57
2022/12/31 02:53:13;;;;;;;;;;;;;;;;;;5074086;28;20007;-55
2022/12/31 02:55:45;;;;;;;;;;;;;;;;;;5074038;28;19928;-50
2022/12/31 02:58:14;;;;;;;;;;;;;;;;;;5071569;28;20446;-51
2022/12/31 03:03:29;;;;;;;;;;;;;;;;;;5053214;28;20297;-52
2022/12/31 03:05:56;;;;;;;;;;;;;;;;;;5070284;28;19978;-51
2022/12/31 03:08:23;;;;;;;;;;;;;;;;;;5072932;28;19970;-50
2022/12/31 03:10:49;;;;;;;;;;;;;;;;;;5072852;28;19925;-48
2022/12/31 03:13:15;;;;;;;;;;;;;;;;;;5072681;28;20494;-50
2022/12/31 03:15:43;;;;;;;;;;;;;;;;;;5073262;28;19924;-51
2022/12/31 03:18:11;;;;;;;;;;;;;;;;;;5072620;28;19924;-50
2022/12/31 03:23:25;;;;;;;;;;;;;;;;;;5070662;28;20356;-49
2022/12/31 03:25:52;;;;;;;;;;;;;;;;;;5073128;28;19924;-52
2022/12/31 03:28:19;;;;;;;;;;;;;;;;;;5072665;28;20324;-50
2022/12/31 03:30:48;;;;;;;;;;;;;;;;;;5073210;28;19924;-49
2022/12/31 03:33:15;;;;;;;;;;;;;;;;;;5072363;28;20263;-50
2022/12/31 03:35:42;;;;;;;;;;;;;;;;;;5072777;28;19924;-49
2022/12/31 03:38:09;;;;;;;;;;;;;;;;;;5072808;28;19928;-47
2022/12/31 03:40:38;;;;;;;;;;;;;;;;;;5072737;28;19985;-49
2022/12/31 03:43:05;;;;;;;;;;;;;;;;;;5072204;28;19944;-49
2022/12/31 03:45:33;;;;;;;;;;;;;;;;;;5072586;28;19970;-50
2022/12/31 03:48:01;;;;;;;;;;;;;;;;;;5072440;28;19925;-50
2022/12/31 03:50:27;;;;;;;;;;;;;;;;;;5071839;28;19931;-49
2022/12/31 03:52:54;;;;;;;;;;;;;;;;;;5072350;28;20278;-49
2022/12/31 03:55:20;;;;;;;;;;;;;;;;;;5072142;28;19925;-49
2022/12/31 03:57:47;;;;;;;;;;;;;;;;;;5072637;28;19994;-50
2022/12/31 04:00:15;;;;;;;;;;;;;;;;;;5072257;28;19925;-50
2022/12/31 04:02:42;;;;;;;;;;;;;;;;;;5071945;28;20373;-51
2022/12/31 04:05:10;;;;;;;;;;;;;;;;;;5067817;28;20382;-50
2022/12/31 04:07:37;;;;;;;;;;;;;;;;;;5071970;28;19929;-50
2022/12/31 04:10:03;;;;;;;;;;;;;;;;;;5071814;28;19924;-50
2022/12/31 04:12:30;;;;;;;;;;;;;;;;;;5071929;28;19924;-49
2022/12/31 04:14:57;;;;;;;;;;;;;;;;;;5072070;28;19924;-50
2022/12/31 04:17:23;;;;;;;;;;;;;;;;;;5071556;28;20403;-51
2022/12/31 04:19:50;;;;;;;;;;;;;;;;;;5071571;28;20014;-50
2022/12/31 04:22:18;;;;;;;;;;;;;;;;;;5071997;28;20308;-50
2022/12/31 04:24:44;;;;;;;;;;;;;;;;;;5071367;28;19925;-50
2022/12/31 04:27:11;;;;;;;;;;;;;;;;;;5066975;28;19924;-53
2022/12/31 04:29:38;;;;;;;;;;;;;;;;;;5071916;28;19925;-52
2022/12/31 04:32:05;;;;;;;;;;;;;;;;;;5072140;28;19924;-54
2022/12/31 04:34:32;;;;;;;;;;;;;;;;;;5071865;28;19931;-52
2022/12/31 04:36:58;;;;;;;;;;;;;;;;;;5071997;28;20308;-50
2022/12/31 04:39:26;;;;;;;;;;;;;;;;;;5072362;28;20301;-50
2022/12/31 04:41:53;;;;;;;;;;;;;;;;;;5071664;28;19931;-50
2022/12/31 04:44:20;;;;;;;;;;;;;;;;;;5071676;28;20399;-52
2022/12/31 04:46:47;;;;;;;;;;;;;;;;;;5071802;28;20372;-53
2022/12/31 04:49:13;;;;;;;;;;;;;;;;;;5071803;28;19928;-51
2022/12/31 04:51:40;;;;;;;;;;;;;;;;;;5071458;28;19924;-51
2022/12/31 04:54:06;;;;;;;;;;;;;;;;;;5071230;28;19936;-50
2022/12/31 04:56:35;;;;;;;;;;;;;;;;;;5071621;28;19924;-49
2022/12/31 04:59:02;;;;;;;;;;;;;;;;;;5071060;28;19979;-51
2022/12/31 05:01:29;;;;;;;;;;;;;;;;;;5071227;28;19932;-52
2022/12/31 05:03:55;;;;;;;;;;;;;;;;;;5071146;28;19928;-50
2022/12/31 05:06:22;;;;;;;;;;;;;;;;;;5071227;28;20408;-50
2022/12/31 05:08:49;;;;;;;;;;;;;;;;;;5070712;28;19932;-50
2022/12/31 05:11:16;;;;;;;;;;;;;;;;;;5070750;28;19924;-50
2022/12/31 05:13:44;;;;;;;;;;;;;;;;;;5071516;28;20336;-53
2022/12/31 05:16:11;;;;;;;;;;;;;;;;;;5071875;28;19924;-52
2022/12/31 05:18:38;;;;;;;;;;;;;;;;;;5071593;28;19970;-51
2022/12/31 05:21:05;;;;;;;;;;;;;;;;;;5071317;28;19924;-50
2022/12/31 05:23:31;;;;;;;;;;;;;;;;;;5071438;28;19979;-49
2022/12/31 05:25:59;;;;;;;;;;;;;;;;;;5073851;28;20324;-49
2022/12/31 05:28:26;;;;;;;;;;;;;;;;;;5074933;28;19931;-52
2022/12/31 05:30:54;;;;;;;;;;;;;;;;;;5075064;28;20456;-52
2022/12/31 05:33:21;;;;;;;;;;;;;;;;;;5074911;28;19924;-53
2022/12/31 05:35:48;;;;;;;;;;;;;;;;;;5074978;28;19975;-53
2022/12/31 05:38:14;;;;;;;;;;;;;;;;;;5074509;28;19978;-50
2022/12/31 05:40:41;;;;;;;;;;;;;;;;;;5074790;28;19924;-49
2022/12/31 05:43:08;;;;;;;;;;;;;;;;;;5074703;28;19931;-49
2022/12/31 05:45:34;;;;;;;;;;;;;;;;;;5074963;28;19924;-49
2022/12/31 05:48:02;;;;;;;;;;;;;;;;;;5075195;28;19924;-51
2022/12/31 05:50:29;;;;;;;;;;;;;;;;;;5074333;28;20408;-49
2022/12/31 05:52:55;;;;;;;;;;;;;;;;;;5074528;28;20305;-49
2022/12/31 05:55:22;;;;;;;;;;;;;;;;;;5074354;28;19932;-51
2022/12/31 05:57:48;;;;;;;;;;;;;;;;;;5074708;28;19932;-50
2022/12/31 06:00:15;;;;;;;;;;;;;;;;;;5073714;28;19924;-50
2022/12/31 06:02:42;;;;;;;;;;;;;;;;;;5074677;28;19978;-50
2022/12/31 06:05:11;;;;;;;;;;;;;;;;;;5063317;28;19928;-53
2022/12/31 06:07:37;;;;;;;;;;;;;;;;;;5054335;28;19929;-50
2022/12/31 06:10:04;;;;;;;;;;;;;;;;;;5066290;28;19924;-51
2022/12/31 06:12:31;;;;;;;;;;;;;;;;;;5074216;28;19925;-51
2022/12/31 06:14:57;;;;;;;;;;;;;;;;;;5074463;28;19990;-50
2022/12/31 06:17:24;;;;;;;;;;;;;;;;;;5074546;28;19986;-50
2022/12/31 06:19:50;;;;;;;;;;;;;;;;;;5073709;28;20444;-50
2022/12/31 06:22:18;;;;;;;;;;;;;;;;;;5073945;28;20458;-51
2022/12/31 06:24:45;;;;;;;;;;;;;;;;;;5073864;28;19932;-53
2022/12/31 06:27:11;;;;;;;;;;;;;;;;;;5074652;28;20344;-50
2022/12/31 06:29:38;;;;;;;;;;;;;;;;;;5073741;28;19970;-50
2022/12/31 06:32:05;;;;;;;;;;;;;;;;;;5074142;28;20439;-50
2022/12/31 06:34:31;;;;;;;;;;;;;;;;;;5073696;28;20396;-52
2022/12/31 06:36:58;;;;;;;;;;;;;;;;;;5072824;28;19924;-49
2022/12/31 06:39:26;;;;;;;;;;;;;;;;;;5074244;28;19924;-51
2022/12/31 06:41:52;;;;;;;;;;;;;;;;;;5074023;28;20041;-51
2022/12/31 06:44:21;;;;;;;;;;;;;;;;;;5073430;28;19924;-51
2022/12/31 06:46:47;;;;;;;;;;;;;;;;;;5074396;28;20292;-50
2022/12/31 06:49:14;;;;;;;;;;;;;;;;;;5073582;28;19925;-49
2022/12/31 06:51:41;;;;;;;;;;;;;;;;;;5073165;28;19929;-53
2022/12/31 06:54:07;;;;;;;;;;;;;;;;;;5073643;28;19932;-50
2022/12/31 06:56:36;;;;;;;;;;;;;;;;;;5073520;28;19993;-50
2022/12/31 06:59:03;;;;;;;;;;;;;;;;;;5073378;28;19974;-52
2022/12/31 07:01:48;;;;;;;;;;;;;;;;;;5073380;28;19925;-54
2022/12/31 07:04:37;;;;;;;;;;;;;;;;;;5090599;22;20352;-80
2022/12/31 07:07:07;;;;;;;;;;;;;;;;;;5075914;28;20018;-81
2022/12/31 07:09:37;;;;;;;;;;;;;;;;;;5075211;28;20010;-81
2022/12/31 07:12:10;;;;;;;;;;;;;;;;;;5068568;28;20020;-81
2022/12/31 07:14:40;;;;;;;;;;;;;;;;;;5059726;28;19935;-80
2022/12/31 07:17:12;;;;;;;;;;;;;;;;;;5055381;28;20015;-81
2022/12/31 07:19:45;;;;;;;;;;;;;;;;;;5055015;28;19948;-81
2022/12/31 07:22:13;;;;;;;;;;;;;;;;;;5054782;28;20444;-80
2022/12/31 07:24:40;;;;;;;;;;;;;;;;;;5054524;28;19925;-81
2022/12/31 07:27:17;;;;;;;;;;;;;;;;;;5054634;28;19968;-81
2022/12/31 07:29:50;;;;;;;;;;;;;;;;;;5054578;28;19978;-81
2022/12/31 07:32:23;;;;;;;;;;;;;;;;;;5054448;28;19947;-81
2022/12/31 07:34:55;;;;;;;;;;;;;;;;;;5054515;28;20343;-81
2022/12/31 07:37:25;;;;;;;;;;;;;;;;;;5054549;28;20390;-81
2022/12/31 07:39:59;;;;;;;;;;;;;;;;;;5054726;28;19960;-82
2022/12/31 07:42:31;;;;;;;;;;;;;;;;;;5054510;28;19964;-81
2022/12/31 07:45:00;;;;;;;;;;;;;;;;;;5054678;28;20032;-81
2022/12/31 07:47:28;;;;;;;;;;;;;;;;;;5054353;28;19991;-81
2022/12/31 07:49:55;;;;;;;;;;;;;;;;;;5054609;28;19929;-81
2022/12/31 07:52:22;;;;;;;;;;;;;;;;;;5054126;28;20023;-81
2022/12/31 07:54:49;;;;;;;;;;;;;;;;;;5054114;28;19959;-82
2022/12/31 07:57:16;;;;;;;;;;;;;;;;;;5053958;28;19928;-82
2022/12/31 07:59:58;;;;;;;;;;;;;;;;;;5053646;28;19929;-82
2022/12/31 08:02:33;;;;;;;;;;;;;;;;;;5054173;28;19924;-82
2022/12/31 08:05:05;;;;;;;;;;;;;;;;;;5055851;28;20307;-80
2022/12/31 08:07:36;;;;;;;;;;;;;;;;;;5056395;28;20374;-82
2022/12/31 08:10:07;;;;;;;;;;;;;;;;;;5054910;28;19995;-81
2022/12/31 08:12:35;;;;;;;;;;;;;;;;;;5034181;28;20096;-81
2022/12/31 08:15:11;;;;;;;;;;;;;;;;;;5052280;28;20024;-81
2022/12/31 08:17:38;;;;;;;;;;;;;;;;;;5054690;28;19940;-81
2022/12/31 08:20:05;;;;;;;;;;;;;;;;;;5055236;28;19932;-80
2022/12/31 08:22:38;;;;;;;;;;;;;;;;;;5058011;28;20303;-80
2022/12/31 08:25:12;;;;;;;;;;;;;;;;;;5055436;28;20403;-81
2022/12/31 08:27:43;;;;;;;;;;;;;;;;;;5054677;28;20019;-81
2022/12/31 08:30:12;;;;;;;;;;;;;;;;;;5055892;28;19948;-81
2022/12/31 08:32:42;;;;;;;;;;;;;;;;;;5056637;28;20350;-81
2022/12/31 08:35:16;;;;;;;;;;;;;;;;;;5054718;28;19925;-81
2022/12/31 08:37:44;;;;;;;;;;;;;;;;;;5054655;28;20036;-81
2022/12/31 08:40:15;;;;;;;;;;;;;;;;;;5055053;28;19963;-81
2022/12/31 08:42:45;;;;;;;;;;;;;;;;;;5065971;28;19960;-81
2022/12/31 08:45:17;;;;;;;;;;;;;;;;;;5066897;28;19931;-81
2022/12/31 08:47:49;;;;;;;;;;;;;;;;;;5066582;28;19929;-81
2022/12/31 08:50:17;;;;;;;;;;;;;;;;;;5060018;28;19964;-81
2022/12/31 08:52:44;;;;;;;;;;;;;;;;;;5055095;28;19979;-81
2022/12/31 08:55:13;;;;;;;;;;;;;;;;;;5055637;28;19933;-81
2022/12/31 08:57:42;;;;;;;;;;;;;;;;;;5054299;28;20015;-81
2022/12/31 09:00:11;;;;;;;;;;;;;;;;;;5058858;28;19925;-82
2022/12/31 09:02:44;;;;;;;;;;;;;;;;;;5058494;28;19975;-82
2022/12/31 09:05:14;;;;;;;;;;;;;;;;;;5058544;28;20007;-81
2022/12/31 09:07:46;;;;;;;;;;;;;;;;;;5059377;28;19979;-81
2022/12/31 09:10:17;;;;;;;;;;;;;;;;;;5058640;28;19924;-81
2022/12/31 09:12:47;;;;;;;;;;;;;;;;;;5058029;28;19974;-81
2022/12/31 09:15:15;;;;;;;;;;;;;;;;;;5057840;28;19971;-81
2022/12/31 09:17:45;;;;;;;;;;;;;;;;;;5057281;28;19979;-81
2022/12/31 09:20:16;;;;;;;;;;;;;;;;;;5057981;28;20008;-81
2022/12/31 09:22:42;;;;;;;;;;;;;;;;;;5057533;28;19967;-81
2022/12/31 09:25:12;;;;;;;;;;;;;;;;;;5058460;28;20306;-81
2022/12/31 09:27:44;;;;;;;;;;;;;;;;;;5058534;28;20015;-82
2022/12/31 09:30:11;;;;;;;;;;;;;;;;;;5058240;28;19947;-82
2022/12/31 09:32:41;;;;;;;;;;;;;;;;;;5057388;28;19967;-82
2022/12/31 09:35:12;;;;;;;;;;;;;;;;;;5062435;28;20023;-82
2022/12/31 09:37:44;;;;;;;;;;;;;;;;;;5061119;28;20340;-82
2022/12/31 09:40:31;;;;;;;;;;;;;;;;;;5057028;28;19964;-82
2022/12/31 09:43:09;;;;;;;;;;;;;;;;;;5030354;28;19967;-82
2022/12/31 09:45:46;;;;;;;;;;;;;;;;;;5056221;28;19929;-82
2022/12/31 09:48:35;;;;;;;;;;;;;;;;;;5039037;28;20048;-82
2022/12/31 09:51:12;;;;;;;;;;;;;;;;;;5056459;28;20019;-82
2022/12/31 09:53:40;;;;;;;;;;;;;;;;;;5056473;28;20016;-82
2022/12/31 09:56:11;;;;;;;;;;;;;;;;;;5056459;28;19947;-82
2022/12/31 09:58:41;;;;;;;;;;;;;;;;;;5057150;28;20019;-82
2022/12/31 10:01:13;;;;;;;;;;;;;;;;;;5056472;28;19924;-82
2022/12/31 10:03:52;;;;;;;;;;;;;;;;;;5056333;28;20004;-82
2022/12/31 10:06:24;;;;;;;;;;;;;;;;;;5054450;28;19929;-83
2022/12/31 10:09:07;;;;;;;;;;;;;;;;;;5059048;28;19925;-83
2022/12/31 10:11:41;;;;;;;;;;;;;;;;;;5062046;28;20388;-83
2022/12/31 10:14:14;;;;;;;;;;;;;;;;;;5061775;28;19959;-82
2022/12/31 10:16:49;;;;;;;;;;;;;;;;;;5058265;28;19925;-83
2022/12/31 10:19:32;;;;;;;;;;;;;;;;;;5046719;28;20303;-83
2022/12/31 10:22:07;;;;;;;;;;;;;;;;;;5059580;28;20007;-83
2022/12/31 10:24:43;;;;;;;;;;;;;;;;;;5058471;28;19979;-83
2022/12/31 10:27:16;;;;;;;;;;;;;;;;;;5059234;28;19924;-83
2022/12/31 10:29:49;;;;;;;;;;;;;;;;;;5040132;28;19983;-84
2022/12/31 10:32:17;;;;;;;;;;;;;;;;;;5055115;28;19931;-84
2022/12/31 10:34:51;;;;;;;;;;;;;;;;;;5058852;28;19956;-74
2022/12/31 10:37:20;;;;;;;;;;;;;;;;;;5059197;28;19960;-84
2022/12/31 10:39:55;;;;;;;;;;;;;;;;;;5060019;28;19979;-82
2022/12/31 10:42:38;;;;;;;;;;;;;;;;;;5059864;28;19972;-83
2022/12/31 10:45:20;;;;;;;;;;;;;;;;;;5063990;28;20457;-84
2022/12/31 10:48:09;;;;;;;;;;;;;;;;;;5021584;28;19932;-84
2022/12/31 10:50:47;;;;;;;;;;;;;;;;;;5064514;28;19925;-84
2022/12/31 10:53:22;;;;;;;;;;;;;;;;;;5064738;28;19959;-84
2022/12/31 10:56:09;;;;;;;;;;;;;;;;;;5064230;28;19925;-84
2022/12/31 10:58:50;;;;;;;;;;;;;;;;;;5062078;28;19978;-83
2022/12/31 11:01:19;;;;;;;;;;;;;;;;;;5061170;28;19968;-83
2022/12/31 11:04:09;;;;;;;;;;;;;;;;;;5059455;28;19925;-82
2022/12/31 11:06:51;;;;;;;;;;;;;;;;;;5048431;28;19960;-80
2022/12/31 11:09:38;;;;;;;;;;;;;;;;;;5059264;28;19925;-86
2022/12/31 11:12:10;;;;;;;;;;;;;;;;;;5057294;28;19933;-84
2022/12/31 11:14:43;;;;;;;;;;;;;;;;;;5060028;28;19935;-85
2022/12/31 11:17:20;;;;;;;;;;;;;;;;;;5059835;28;19928;-85
2022/12/31 11:19:52;;;;;;;;;;;;;;;;;;5058011;28;19968;-85
2022/12/31 11:22:29;;;;;;;;;;;;;;;;;;5058325;28;19964;-84
2022/12/31 11:25:04;;;;;;;;;;;;;;;;;;5060824;28;19988;-83
2022/12/31 11:27:41;;;;;;;;;;;;;;;;;;5063802;28;19925;-83
2022/12/31 11:30:13;;;;;;;;;;;;;;;;;;5040262;28;19932;-84
2022/12/31 11:32:47;;;;;;;;;;;;;;;;;;5059039;28;19925;-84
2022/12/31 11:35:22;;;;;;;;;;;;;;;;;;5060683;28;19925;-84
2022/12/31 11:37:49;;;;;;;;;;;;;;;;;;5054739;28;19929;-84
2022/12/31 11:40:31;;;;;;;;;;;;;;;;;;5062129;28;19970;-84
2022/12/31 11:43:04;;;;;;;;;;;;;;;;;;5059416;28;19925;-84
2022/12/31 11:45:39;;;;;;;;;;;;;;;;;;5059765;28;19932;-84
2022/12/31 11:48:13;;;;;;;;;;;;;;;;;;5058296;28;19964;-84
2022/12/31 11:50:48;;;;;;;;;;;;;;;;;;5047743;28;19976;-83
2022/12/31 11:53:35;;;;;;;;;;;;;;;;;;5057523;28;19939;-84
2022/12/31 11:56:13;;;;;;;;;;;;;;;;;;5044154;28;19925;-85
2022/12/31 12:01:51;;;;;;;;;;;;;;;;;;5041888;28;19928;-85
2022/12/31 12:04:18;;;;;;;;;;;;;;;;;;5058054;28;19983;-83
2022/12/31 12:06:44;;;;;;;;;;;;;;;;;;5053170;28;19936;-85
2022/12/31 12:09:14;;;;;;;;;;;;;;;;;;5055610;28;19925;-81
2022/12/31 12:11:41;;;;;;;;;;;;;;;;;;5044373;28;19926;-84
2022/12/31 12:14:19;;;;;;;;;;;;;;;;;;5059690;28;19924;-85
2022/12/31 12:16:49;;;;;;;;;;;;;;;;;;5059093;28;19929;-85
2022/12/31 12:19:17;;;;;;;;;;;;;;;;;;5061049;28;21500;-84
2022/12/31 12:21:45;;;;;;;;;;;;;;;;;;5059461;28;20008;-85
2022/12/31 12:24:19;;;;;;;;;;;;;;;;;;5046946;28;20008;-84
2022/12/31 12:26:45;;;;;;;;;;;;;;;;;;5051363;28;19968;-85
2022/12/31 12:29:12;;;;;;;;;;;;;;;;;;5054654;28;19975;-84
2022/12/31 12:31:39;;;;;;;;;;;;;;;;;;5055321;28;19972;-84
2022/12/31 12:34:20;;;;;;;;;;;;;;;;;;5055375;28;19944;-86
2022/12/31 12:36:47;;;;;;;;;;;;;;;;;;5059084;28;20012;-85
2022/12/31 12:39:18;;;;;;;;;;;;;;;;;;5059420;28;19925;-85
2022/12/31 12:41:45;;;;;;;;;;;;;;;;;;5058820;28;19979;-85
2022/12/31 12:44:14;;;;;;;;;;;;;;;;;;5058913;28;19971;-85
2022/12/31 12:46:43;;;;;;;;;;;;;;;;;;5060551;28;19964;-85
2022/12/31 12:49:18;;;;;;;;;;;;;;;;;;5061409;28;20020;-85
2022/12/31 12:51:51;;;;;;;;;;;;;;;;;;5061101;28;19925;-86
2022/12/31 12:54:28;;;;;;;;;;;;;;;;;;5071817;28;19964;-85
2022/12/31 12:57:00;;;;;;;;;;;;;;;;;;5066623;28;19971;-85
2022/12/31 12:59:50;;;;;;;;;;;;;;;;;;5060118;28;19976;-84
2022/12/31 13:02:38;;;;;;;;;;;;;;;;;;5063221;28;19925;-86
2022/12/31 13:05:13;;;;;;;;;;;;;;;;;;5025582;28;19948;-84
2022/12/31 13:07:44;;;;;;;;;;;;;;;;;;5058327;28;19978;-84
2022/12/31 13:10:19;;;;;;;;;;;;;;;;;;5057972;28;19979;-85
2022/12/31 13:12:48;;;;;;;;;;;;;;;;;;5058853;28;19925;-84
2022/12/31 13:15:17;;;;;;;;;;;;;;;;;;5062385;28;20534;-85
2022/12/31 13:17:51;;;;;;;;;;;;;;;;;;5059042;28;20004;-84
2022/12/31 13:20:25;;;;;;;;;;;;;;;;;;5058940;28;19983;-85
2022/12/31 13:22:57;;;;;;;;;;;;;;;;;;5059370;28;20024;-84
2022/12/31 13:25:27;;;;;;;;;;;;;;;;;;5058120;28;19925;-84
2022/12/31 13:27:55;;;;;;;;;;;;;;;;;;5057638;28;19924;-84
2022/12/31 13:30:23;;;;;;;;;;;;;;;;;;5057519;28;19940;-84
2022/12/31 13:32:52;;;;;;;;;;;;;;;;;;5058075;28;19924;-84
2022/12/31 13:35:23;;;;;;;;;;;;;;;;;;5058176;28;19925;-84
2022/12/31 13:37:51;;;;;;;;;;;;;;;;;;5067326;28;20022;-84
2022/12/31 13:40:19;;;;;;;;;;;;;;;;;;5058038;28;19991;-84
2022/12/31 13:42:51;;;;;;;;;;;;;;;;;;5057053;28;20330;-85
2022/12/31 13:45:22;;;;;;;;;;;;;;;;;;5058093;28;19944;-84
2022/12/31 13:47:52;;;;;;;;;;;;;;;;;;5062257;28;20011;-85
2022/12/31 13:50:24;;;;;;;;;;;;;;;;;;5061173;28;19974;-85
2022/12/31 13:52:53;;;;;;;;;;;;;;;;;;5060739;28;19931;-84
2022/12/31 13:55:22;;;;;;;;;;;;;;;;;;5059862;28;19980;-85
2022/12/31 13:57:50;;;;;;;;;;;;;;;;;;5061239;28;19967;-84
2022/12/31 14:00:19;;;;;;;;;;;;;;;;;;5064751;28;19929;-84
2022/12/31 14:02:50;;;;;;;;;;;;;;;;;;5067899;28;19924;-84
2022/12/31 14:05:19;;;;;;;;;;;;;;;;;;5068970;28;19976;-85
2022/12/31 14:07:50;;;;;;;;;;;;;;;;;;5066713;28;19964;-84
2022/12/31 14:10:20;;;;;;;;;;;;;;;;;;5060588;28;19932;-84
2022/12/31 14:12:51;;;;;;;;;;;;;;;;;;5062259;28;19925;-85
2022/12/31 14:15:20;;;;;;;;;;;;;;;;;;5063756;28;19976;-84
2022/12/31 14:17:50;;;;;;;;;;;;;;;;;;5066424;28;19929;-85
2022/12/31 14:20:22;;;;;;;;;;;;;;;;;;5062889;28;19988;-85
2022/12/31 14:22:54;;;;;;;;;;;;;;;;;;5061453;28;19956;-85
2022/12/31 14:25:22;;;;;;;;;;;;;;;;;;5061750;28;19931;-85
2022/12/31 14:27:50;;;;;;;;;;;;;;;;;;5061409;28;20016;-86
2022/12/31 14:30:18;;;;;;;;;;;;;;;;;;5060913;28;20477;-85
2022/12/31 14:33:00;;;;;;;;;;;;;;;;;;5060878;28;19971;-84
2022/12/31 14:35:32;;;;;;;;;;;;;;;;;;5043160;28;19964;-85
2022/12/31 14:38:04;;;;;;;;;;;;;;;;;;5060550;28;20008;-85
2022/12/31 14:40:37;;;;;;;;;;;;;;;;;;5060267;28;19993;-85
2022/12/31 14:43:09;;;;;;;;;;;;;;;;;;5059985;28;19925;-85
2022/12/31 14:45:43;;;;;;;;;;;;;;;;;;5060005;28;19960;-84
2022/12/31 14:48:15;;;;;;;;;;;;;;;;;;5060688;28;19948;-84
2022/12/31 14:50:47;;;;;;;;;;;;;;;;;;5060332;28;19932;-84
2022/12/31 14:53:19;;;;;;;;;;;;;;;;;;5060108;28;19924;-85
2022/12/31 14:55:56;;;;;;;;;;;;;;;;;;5061209;28;19992;-85
2022/12/31 14:58:23;;;;;;;;;;;;;;;;;;5059776;28;20394;-85
2022/12/31 15:00:54;;;;;;;;;;;;;;;;;;5060039;28;19925;-85
2022/12/31 15:03:24;;;;;;;;;;;;;;;;;;5060059;28;20012;-84
2022/12/31 15:05:52;;;;;;;;;;;;;;;;;;5061070;28;19928;-84
2022/12/31 15:08:39;;;;;;;;;;;;;;;;;;5066933;28;19925;-84
2022/12/31 15:11:14;;;;;;;;;;;;;;;;;;5056635;28;19925;-84
2022/12/31 15:13:50;;;;;;;;;;;;;;;;;;5058509;28;20479;-84
2022/12/31 15:16:28;;;;;;;;;;;;;;;;;;5057887;28;20016;-83
2022/12/31 15:19:06;;;;;;;;;;;;;;;;;;5057811;28;19957;-83
2022/12/31 15:21:41;;;;;;;;;;;;;;;;;;5058768;28;20028;-84
2022/12/31 15:24:18;;;;;;;;;;;;;;;;;;5057427;28;20446;-84
2022/12/31 15:26:49;;;;;;;;;;;;;;;;;;5058166;28;19925;-84
2022/12/31 15:29:23;;;;;;;;;;;;;;;;;;5057905;28;19980;-84
2022/12/31 15:31:50;;;;;;;;;;;;;;;;;;5058862;28;19961;-84
2022/12/31 15:34:24;;;;;;;;;;;;;;;;;;5056907;28;20003;-83
2022/12/31 15:36:52;;;;;;;;;;;;;;;;;;5058602;28;19971;-84
2022/12/31 15:39:25;;;;;;;;;;;;;;;;;;5060060;28;19980;-84
2022/12/31 15:41:53;;;;;;;;;;;;;;;;;;5060320;28;20395;-84
2022/12/31 15:44:24;;;;;;;;;;;;;;;;;;5059550;28;19925;-85
2022/12/31 15:46:54;;;;;;;;;;;;;;;;;;5059458;28;20414;-85
2022/12/31 15:49:22;;;;;;;;;;;;;;;;;;5058126;28;19925;-88
2022/12/31 15:51:51;;;;;;;;;;;;;;;;;;5056800;28;20012;-87
2022/12/31 15:54:23;;;;;;;;;;;;;;;;;;5055351;28;19925;-92
2022/12/31 15:56:49;;;;;;;;;;;;;;;;;;5054882;28;19925;-88
2022/12/31 15:59:18;;;;;;;;;;;;;;;;;;5057198;28;19964;-86
2022/12/31 16:01:46;;;;;;;;;;;;;;;;;;5057052;28;19960;-87
2022/12/31 16:04:15;;;;;;;;;;;;;;;;;;5066646;28;19925;-88
2022/12/31 16:06:42;;;;;;;;;;;;;;;;;;5061711;28;19932;-86
2022/12/31 16:09:09;;;;;;;;;;;;;;;;;;5056190;28;20004;-89
2022/12/31 16:11:36;;;;;;;;;;;;;;;;;;5054572;28;20566;-87
2022/12/31 16:14:03;;;;;;;;;;;;;;;;;;5054410;28;19932;-87
2022/12/31 16:16:32;;;;;;;;;;;;;;;;;;5053909;28;19964;-86
2022/12/31 16:18:59;;;;;;;;;;;;;;;;;;5054745;28;19929;-85
2022/12/31 16:21:31;;;;;;;;;;;;;;;;;;5056194;28;19987;-82
2022/12/31 16:23:58;;;;;;;;;;;;;;;;;;5055281;28;19925;-84
2022/12/31 16:26:28;;;;;;;;;;;;;;;;;;5060119;28;20353;-89
2022/12/31 16:28:58;;;;;;;;;;;;;;;;;;5061089;28;19924;-88
2022/12/31 16:31:27;;;;;;;;;;;;;;;;;;5057932;28;19924;-85
2022/12/31 16:34:05;;;;;;;;;;;;;;;;;;5054536;28;19929;-90
2022/12/31 16:36:32;;;;;;;;;;;;;;;;;;5056128;28;19924;-84
2022/12/31 16:39:20;;;;;;;;;;;;;;;;;;5055387;28;19928;-83
2022/12/31 16:41:46;;;;;;;;;;;;;;;;;;5055848;28;21943;-84
2022/12/31 16:44:26;;;;;;;;;;;;;;;;;;5055396;28;20295;-87
2022/12/31 16:46:56;;;;;;;;;;;;;;;;;;5054211;28;20422;-88
2022/12/31 16:49:24;;;;;;;;;;;;;;;;;;5057749;28;19980;-85
2022/12/31 16:51:51;;;;;;;;;;;;;;;;;;5046438;28;19932;-85
2022/12/31 16:54:19;;;;;;;;;;;;;;;;;;5051775;28;19976;-87
2022/12/31 16:56:46;;;;;;;;;;;;;;;;;;5054445;28;19924;-86
2022/12/31 16:59:17;;;;;;;;;;;;;;;;;;5054280;28;19925;-89
2022/12/31 17:01:44;;;;;;;;;;;;;;;;;;5013066;28;19925;-84
2022/12/31 17:04:12;;;;;;;;;;;;;;;;;;5056486;28;19928;-88
2022/12/31 17:06:39;;;;;;;;;;;;;;;;;;5039507;28;19959;-86
2022/12/31 17:09:19;;;;;;;;;;;;;;;;;;5035507;28;19936;-85
2022/12/31 17:11:49;;;;;;;;;;;;;;;;;;5044923;28;20403;-85
2022/12/31 17:14:16;;;;;;;;;;;;;;;;;;5053291;28;19924;-89
2022/12/31 17:16:53;;;;;;;;;;;;;;;;;;5039318;28;20021;-86
2022/12/31 17:19:33;;;;;;;;;;;;;;;;;;5034892;28;19925;-87